Kunszentmarton, Hungary
Current Conditions -  °F | °C
As of 11:45 PM on Monday 22 Dec 2014 (Local Time) from LHSN Reporting Station
Clear Clear  
Wind Chill: 38°   Ceiling: Unl
Heat Index: 45°   Visibility: 6mi
Dew Point: 34°   Wind: 14mph
Humidity: 66%   Direction: 250°WSW
Pressure: 30.09"   Gusts: NA
Location:  46.84°N, 20.29°E
Report Text: LHSN 222145Z 25012KT CAVOK 07/01 Q1019 RMK BLU
Loading
Personal Weather Stations






























Interactive Weather Map New forecast layout! Learn more

10-Day Weather Forecast

Advertisements
Track Severe Weather on mobile